Terminal Aerodrome Forecast
Issued by NWS Green Bay, WI

Home | Current Version | Previous Version | Graphics & Text | Print | Product List | Glossary On
Versions: 1 2 3 4 5 6 7 8 9 10 11 12 13 14 15 16 17 18 19 20 21 22 23 24 25 26 27 28 29 30 31 32 33 34 35 36 37 38 39 40 41 42 43 44 45 46 47 48 49 50
000
FTUS43 KGRB 231500 AAA
TAFGRB
TAF AMD
KGRB 231541Z 2316/2412 06006KT 1SM BR OVC004
      TEMPO 2316/2318 1/2SM -DZ FG SCT004 OVC008
     FM231800 15007KT 1SM -DZ BR OVC008
     FM232000 18006KT 4SM BR OVC012
     FM240300 22004KT 5SM -DZ BR OVC008
     FM240900 29003KT 5SM BR OVC004=

USA.gov is the U.S. government's official web portal to all federal, state and local government web resources and services.